createdAt,value
2019-01-16T00:00:00.663Z,19.8
2019-01-16T00:00:50.646Z,19.8
2019-01-16T00:01:40.470Z,19.8
2019-01-16T00:02:30.759Z,19.8
2019-01-16T00:03:21.198Z,19.8
2019-01-16T00:04:11.184Z,19.8
2019-01-16T00:05:00.648Z,19.8
2019-01-16T00:05:50.441Z,19.8
2019-01-16T00:06:41.601Z,19.8
2019-01-16T00:07:31.388Z,19.8
2019-01-16T00:08:21.426Z,19.8
2019-01-16T00:09:11.214Z,19.8
2019-01-16T00:10:01.656Z,19.8
2019-01-16T00:10:51.051Z,19.7
2019-01-16T00:11:41.653Z,19.8
2019-01-16T00:12:31.466Z,19.8
2019-01-16T00:13:21.488Z,19.7
2019-01-16T00:14:10.987Z,19.7
2019-01-16T00:15:01.103Z,19.7
2019-01-16T00:15:51.181Z,19.7
2019-01-16T00:16:41.226Z,19.7
2019-01-16T00:17:31.058Z,19.7
2019-01-16T00:18:22.323Z,19.7
2019-01-16T00:19:12.168Z,19.7
2019-01-16T00:20:02.244Z,19.7
2019-01-16T00:20:52.546Z,19.7
2019-01-16T00:21:42.323Z,19.7
2019-01-16T00:22:32.394Z,19.7
2019-01-16T00:23:21.933Z,19.7
2019-01-16T00:24:12.778Z,19.7
2019-01-16T00:25:01.440Z,19.7
2019-01-16T00:25:52.907Z,19.6
2019-01-16T00:26:42.395Z,19.6
2019-01-16T00:27:32.457Z,19.6
2019-01-16T00:28:22.230Z,19.6
2019-01-16T00:29:12.827Z,19.6
2019-01-16T00:30:02.715Z,19.7
2019-01-16T00:30:52.676Z,19.6
2019-01-16T00:31:43.010Z,19.7
2019-01-16T00:32:33.062Z,19.6
2019-01-16T00:33:23.207Z,19.6
2019-01-16T00:34:13.182Z,19.6
2019-01-16T00:35:03.330Z,19.6
2019-01-16T00:35:51.684Z,19.6
2019-01-16T00:36:42.571Z,19.6
2019-01-16T00:37:32.922Z,19.6
2019-01-16T00:38:22.699Z,19.6
2019-01-16T00:39:13.041Z,19.6
2019-01-16T00:40:03.087Z,19.6
2019-01-16T00:40:53.364Z,19.6
2019-01-16T00:41:43.141Z,19.6
2019-01-16T00:42:33.451Z,19.6
2019-01-16T00:43:22.956Z,19.6
2019-01-16T00:44:13.576Z,19.6
2019-01-16T00:45:03.080Z,19.6
2019-01-16T00:45:53.669Z,19.6
2019-01-16T00:46:44.012Z,19.6
2019-01-16T00:47:33.521Z,19.6
2019-01-16T00:48:29.556Z,19.6
2019-01-16T00:49:13.947Z,19.6
2019-01-16T00:50:03.766Z,19.6
2019-01-16T00:50:54.076Z,19.6
2019-01-16T00:51:44.641Z,19.6
2019-01-16T00:52:33.851Z,19.6
2019-01-16T00:53:23.958Z,19.6
2019-01-16T00:54:14.290Z,19.6
2019-01-16T00:55:04.608Z,19.6
2019-01-16T00:55:54.635Z,19.6
2019-01-16T00:56:44.400Z,19.6
2019-01-16T00:57:35.045Z,19.6
2019-01-16T00:58:23.983Z,19.6
2019-01-16T00:59:16.025Z,19.6
2019-01-16T01:00:04.438Z,19.6
2019-01-16T01:00:54.726Z,19.6
2019-01-16T01:01:44.513Z,19.6
2019-01-16T01:02:34.525Z,19.6
2019-01-16T01:03:24.900Z,19.5
2019-01-16T01:04:14.370Z,19.6
2019-01-16T01:05:05.002Z,19.5
2019-01-16T01:05:55.035Z,19.5
2019-01-16T01:06:45.385Z,19.5
2019-01-16T01:07:35.137Z,19.5
2019-01-16T01:08:25.237Z,19.6
2019-01-16T01:09:15.832Z,19.5
2019-01-16T01:10:05.975Z,19.5
2019-01-16T01:10:55.378Z,19.5
2019-01-16T01:11:44.947Z,19.5
2019-01-16T01:12:35.479Z,19.5
2019-01-16T01:13:25.547Z,19.5
2019-01-16T01:14:16.172Z,19.5
2019-01-16T01:15:06.304Z,19.5
2019-01-16T01:15:56.256Z,19.5
2019-01-16T01:16:46.072Z,19.5
2019-01-16T01:17:36.107Z,19.5
2019-01-16T01:18:41.229Z,19.5
2019-01-16T01:19:15.939Z,19.5
2019-01-16T01:20:06.017Z,19.5
2019-01-16T01:20:56.329Z,19.5
2019-01-16T01:21:46.183Z,19.4
2019-01-16T01:22:36.518Z,19.5
2019-01-16T01:23:25.659Z,19.5
2019-01-16T01:24:16.289Z,19.5
2019-01-16T01:25:06.628Z,19.4
2019-01-16T01:25:56.416Z,19.4
2019-01-16T01:26:46.998Z,19.4
2019-01-16T01:27:36.803Z,19.4
2019-01-16T01:28:26.571Z,19.4
2019-01-16T01:29:17.163Z,19.5
2019-01-16T01:30:06.718Z,19.4
2019-01-16T01:30:57.141Z,19.4
2019-01-16T01:31:46.796Z,19.5
2019-01-16T01:32:36.843Z,19.4
2019-01-16T01:33:27.473Z,19.4
2019-01-16T01:34:17.326Z,19.4
2019-01-16T01:35:07.588Z,19.4
2019-01-16T01:35:57.353Z,19.4
2019-01-16T01:36:46.846Z,19.4
2019-01-16T01:37:37.471Z,19.4
2019-01-16T01:38:27.800Z,19.4
2019-01-16T01:39:17.285Z,19.4
2019-01-16T01:40:07.633Z,19.4
2019-01-16T01:40:57.408Z,19.4
2019-01-16T01:41:47.202Z,19.4
2019-01-16T01:42:37.244Z,19.4
2019-01-16T01:43:27.598Z,19.4
2019-01-16T01:44:17.647Z,19.4
2019-01-16T01:45:07.700Z,19.4
2019-01-16T01:45:58.320Z,19.4
2019-01-16T01:46:47.805Z,19.4
2019-01-16T01:47:37.315Z,19.4
2019-01-16T01:48:27.925Z,19.4
2019-01-16T01:49:18.328Z,19.4
2019-01-16T01:50:07.823Z,19.4
2019-01-16T01:50:57.304Z,19.4
2019-01-16T01:51:47.919Z,19.4
2019-01-16T01:52:38.474Z,19.4
2019-01-16T01:53:28.539Z,19.4
2019-01-16T01:54:18.872Z,19.4
2019-01-16T01:55:08.362Z,19.4
2019-01-16T01:55:58.705Z,19.4
2019-01-16T01:56:48.493Z,19.4
2019-01-16T01:57:38.275Z,19.4
2019-01-16T01:58:28.054Z,19.4
2019-01-16T01:59:18.376Z,19.4
2019-01-16T02:00:08.719Z,19.4
2019-01-16T02:00:59.051Z,19.4
2019-01-16T02:01:48.543Z,19.4
2019-01-16T02:02:39.206Z,19.4
2019-01-16T02:03:29.204Z,19.4
2019-01-16T02:04:18.989Z,19.4
2019-01-16T02:05:08.511Z,19.4
2019-01-16T02:05:59.092Z,19.4
2019-01-16T02:06:49.601Z,19.5
2019-01-16T02:07:39.545Z,19.6
2019-01-16T02:08:29.816Z,19.6
2019-01-16T02:09:19.325Z,19.6
2019-01-16T02:10:09.367Z,19.7
2019-01-16T02:10:59.220Z,19.8
2019-01-16T02:11:48.661Z,19.8
2019-01-16T02:12:39.606Z,19.9
2019-01-16T02:13:29.606Z,19.9
2019-01-16T02:14:19.449Z,20
2019-01-16T02:15:09.720Z,20.1
2019-01-16T02:16:00.064Z,20.2
2019-01-16T02:16:49.286Z,20.3
2019-01-16T02:17:39.393Z,20.3
2019-01-16T02:18:28.905Z,20.4
2019-01-16T02:19:20.110Z,20.4
2019-01-16T02:20:10.133Z,20.6
2019-01-16T02:21:00.190Z,20.6
2019-01-16T02:21:49.410Z,20.7
2019-01-16T02:22:39.745Z,20.8
2019-01-16T02:23:29.830Z,20.8
2019-01-16T02:24:19.593Z,20.9
2019-01-16T02:25:09.995Z,21
2019-01-16T02:25:59.980Z,21.1
2019-01-16T02:27:41.117Z,21.3
2019-01-16T02:28:29.817Z,21.3
2019-01-16T02:29:20.975Z,21.4
2019-01-16T02:30:10.863Z,21.5
2019-01-16T02:31:00.840Z,21.6
2019-01-16T02:31:50.867Z,21.7
2019-01-16T02:32:41.242Z,21.8
2019-01-16T02:33:31.052Z,21.9
2019-01-16T02:34:21.329Z,21.9
2019-01-16T02:35:10.803Z,22.1
2019-01-16T02:36:01.144Z,22.1
2019-01-16T02:36:51.829Z,22.3
2019-01-16T02:37:41.312Z,22.3
2019-01-16T02:38:31.352Z,22.4
2019-01-16T02:39:21.691Z,22.5
2019-01-16T02:40:11.697Z,22.6
2019-01-16T02:41:01.502Z,22.7
2019-01-16T02:41:51.331Z,22.8
2019-01-16T02:42:41.336Z,22.9
2019-01-16T02:43:31.647Z,22.9
2019-01-16T02:44:21.780Z,23.1
2019-01-16T02:45:11.771Z,23.1
2019-01-16T02:46:01.862Z,23.3
2019-01-16T02:46:51.399Z,23.3
2019-01-16T02:47:41.865Z,23.4
2019-01-16T02:48:31.286Z,23.5
2019-01-16T02:49:21.858Z,23.6
2019-01-16T02:50:12.681Z,23.6
2019-01-16T02:51:02.444Z,23.8
2019-01-16T02:51:52.286Z,23.9
2019-01-16T02:52:42.361Z,23.9
2019-01-16T02:53:31.778Z,24
2019-01-16T02:54:22.971Z,24.1
2019-01-16T02:55:12.513Z,24.2
2019-01-16T02:56:02.458Z,24.3
2019-01-16T02:56:52.621Z,24.3
2019-01-16T02:57:42.601Z,24.4
2019-01-16T02:58:32.737Z,24.5
2019-01-16T02:59:22.759Z,24.6
2019-01-16T03:00:12.523Z,24.7
2019-01-16T03:01:03.394Z,24.8
2019-01-16T03:01:52.961Z,24.8
2019-01-16T03:02:43.239Z,24.9
2019-01-16T03:03:32.453Z,25
2019-01-16T03:04:23.062Z,25.1
2019-01-16T03:05:13.481Z,25.2
2019-01-16T03:08:46.957Z,25.5
2019-01-16T03:09:36.397Z,25.6
2019-01-16T03:10:27.005Z,25.7
2019-01-16T03:11:17.267Z,25.8
2019-01-16T03:12:07.432Z,25.9
2019-01-16T03:12:57.140Z,25.9
2019-01-16T03:13:46.623Z,26
2019-01-16T03:14:37.537Z,26.1
2019-01-16T03:15:27.292Z,26.2
2019-01-16T03:16:16.799Z,26.2
2019-01-16T03:17:07.442Z,26.3
2019-01-16T03:17:57.199Z,26.4
2019-01-16T03:18:47.784Z,26.4
2019-01-16T03:19:37.707Z,26.5
2019-01-16T03:20:27.451Z,26.6
2019-01-16T03:21:17.969Z,26.6
2019-01-16T03:22:07.810Z,26.8
2019-01-16T03:22:58.087Z,26.8
2019-01-16T03:23:47.298Z,26.9
2019-01-16T03:24:37.414Z,26.9
2019-01-16T03:25:27.718Z,27.1
2019-01-16T03:26:18.360Z,27.1
2019-01-16T03:27:08.084Z,27.1
2019-01-16T03:27:58.431Z,27.3
2019-01-16T03:28:48.471Z,27.3
2019-01-16T03:29:37.702Z,27.4
2019-01-16T03:30:28.527Z,27.5
2019-01-16T03:31:18.282Z,27.6
2019-01-16T03:32:08.992Z,27.6
2019-01-16T03:32:58.343Z,27.6
2019-01-16T03:33:48.234Z,27.7
2019-01-16T03:34:38.159Z,27.8
2019-01-16T03:35:28.641Z,27.8
2019-01-16T03:37:08.196Z,27.9
2019-01-16T03:37:59.086Z,27.9
2019-01-16T03:38:49.162Z,28
2019-01-16T03:39:38.287Z,28
2019-01-16T03:40:29.238Z,28
2019-01-16T03:41:19.061Z,28
2019-01-16T03:42:09.158Z,28.1
2019-01-16T03:42:59.160Z,28.1
2019-01-16T03:43:48.923Z,28.1
2019-01-16T03:44:38.783Z,28.1
2019-01-16T03:45:29.687Z,28.2
2019-01-16T03:46:19.374Z,28.2
2019-01-16T03:47:09.217Z,28.2
2019-01-16T03:47:59.535Z,28.2
2019-01-16T03:48:49.507Z,28.3
2019-01-16T03:49:39.651Z,28.3
2019-01-16T03:50:29.666Z,28.3
2019-01-16T03:51:19.460Z,28.3
2019-01-16T03:52:10.105Z,28.3
2019-01-16T03:52:59.854Z,28.3
2019-01-16T03:53:49.572Z,28.3
2019-01-16T03:54:39.942Z,28.3
2019-01-16T03:55:29.845Z,28.4
2019-01-16T03:56:19.742Z,28.4
2019-01-16T03:57:09.827Z,28.4
2019-01-16T03:58:00.446Z,28.4
2019-01-16T03:58:49.926Z,28.4
2019-01-16T03:59:40.031Z,28.4
2019-01-16T04:00:30.581Z,28.5
2019-01-16T04:01:20.377Z,28.5
2019-01-16T04:02:10.726Z,28.5
2019-01-16T04:03:00.778Z,28.5
2019-01-16T04:03:50.254Z,28.5
2019-01-16T04:04:40.593Z,28.6
2019-01-16T04:05:30.936Z,28.6
2019-01-16T04:06:20.995Z,28.6
2019-01-16T04:07:10.486Z,28.6
2019-01-16T04:08:00.525Z,28.7
2019-01-16T04:08:50.353Z,28.8
2019-01-16T04:09:40.949Z,28.8
2019-01-16T04:10:30.684Z,28.8
2019-01-16T04:11:21.042Z,28.8
2019-01-16T04:12:10.679Z,28.8
2019-01-16T04:13:01.153Z,28.8
2019-01-16T04:13:50.946Z,28.8
2019-01-16T04:14:41.565Z,28.9
2019-01-16T04:15:31.620Z,28.9
2019-01-16T04:16:21.686Z,28.9
2019-01-16T04:17:11.022Z,28.8
2019-01-16T04:18:01.286Z,28.9
2019-01-16T04:18:51.096Z,28.9
2019-01-16T04:19:41.883Z,28.9
2019-01-16T04:20:31.706Z,28.9
2019-01-16T04:21:21.551Z,28.9
2019-01-16T04:22:11.625Z,28.8
2019-01-16T04:23:01.434Z,28.9
2019-01-16T04:23:51.721Z,28.9
2019-01-16T04:24:41.470Z,28.9
2019-01-16T04:25:31.668Z,28.9
2019-01-16T04:26:22.170Z,28.9
2019-01-16T04:27:12.010Z,28.9
2019-01-16T04:28:01.903Z,28.9
2019-01-16T04:28:51.480Z,28.9
2019-01-16T04:29:42.032Z,28.9
2019-01-16T04:30:31.846Z,28.9
2019-01-16T04:31:22.178Z,28.9
2019-01-16T04:32:12.245Z,28.9
2019-01-16T04:33:02.344Z,28.9
2019-01-16T04:33:51.815Z,28.9
2019-01-16T04:34:42.427Z,28.9
2019-01-16T04:35:32.232Z,28.9
2019-01-16T04:36:22.552Z,28.9
2019-01-16T04:37:12.556Z,28.9
2019-01-16T04:38:02.440Z,28.9
2019-01-16T04:38:52.697Z,28.9
2019-01-16T04:39:42.732Z,28.9
2019-01-16T04:40:32.545Z,28.9
2019-01-16T04:41:22.646Z,28.9
2019-01-16T04:42:13.309Z,28.9
2019-01-16T04:43:02.759Z,28.9
2019-01-16T04:43:52.461Z,28.9
2019-01-16T04:44:42.882Z,28.9
2019-01-16T04:45:32.592Z,28.9
2019-01-16T04:46:23.189Z,28.9
2019-01-16T04:47:13.244Z,28.9
2019-01-16T04:48:03.302Z,28.9
2019-01-16T04:48:53.415Z,28.9
2019-01-16T04:49:42.859Z,28.9
2019-01-16T04:50:33.195Z,28.9
2019-01-16T04:51:23.301Z,28.9
2019-01-16T04:52:13.306Z,28.9
2019-01-16T04:53:03.627Z,28.9
2019-01-16T04:53:53.721Z,28.9
2019-01-16T04:54:43.516Z,28.9
2019-01-16T04:55:33.521Z,28.8
2019-01-16T04:56:23.645Z,28.9
2019-01-16T04:57:13.933Z,28.8
2019-01-16T04:58:03.958Z,28.9
2019-01-16T04:58:54.101Z,28.8
2019-01-16T04:59:43.251Z,28.8
2019-01-16T05:00:33.957Z,28.8
2019-01-16T05:01:23.926Z,28.8
2019-01-16T05:02:14.291Z,28.9
2019-01-16T05:03:04.316Z,28.8
2019-01-16T05:03:54.099Z,28.8
2019-01-16T05:04:44.432Z,28.9
2019-01-16T05:05:33.640Z,28.8
2019-01-16T05:06:24.270Z,28.8
2019-01-16T05:07:14.366Z,28.8
2019-01-16T05:08:03.835Z,28.8
2019-01-16T05:08:55.170Z,28.8
2019-01-16T05:09:44.678Z,28.8
2019-01-16T05:10:35.030Z,28.8
2019-01-16T05:11:24.109Z,28.8
2019-01-16T05:12:14.672Z,28.8
2019-01-16T05:13:05.467Z,28.8
2019-01-16T05:13:55.515Z,28.8
2019-01-16T05:14:45.016Z,28.8
2019-01-16T05:15:35.357Z,28.8
2019-01-16T05:16:25.410Z,28.8
2019-01-16T05:17:15.457Z,28.8
2019-01-16T05:18:05.309Z,28.8
2019-01-16T05:18:55.632Z,28.8
2019-01-16T05:19:45.933Z,28.8
2019-01-16T05:20:35.410Z,28.8
2019-01-16T05:21:25.239Z,28.8
2019-01-16T05:22:15.554Z,28.8
2019-01-16T05:23:06.128Z,28.8
2019-01-16T05:23:56.219Z,28.8
2019-01-16T05:24:46.242Z,28.8
2019-01-16T05:25:36.009Z,28.8
2019-01-16T05:26:28.345Z,28.8
2019-01-16T05:27:16.424Z,28.8
2019-01-16T05:28:06.494Z,28.8
2019-01-16T05:28:55.967Z,28.8
2019-01-16T05:29:46.424Z,28.7
2019-01-16T05:30:36.339Z,28.7
2019-01-16T05:31:26.463Z,28.7
2019-01-16T05:32:16.752Z,28.8
2019-01-16T05:33:06.534Z,28.7
2019-01-16T05:33:56.573Z,28.7
2019-01-16T05:34:46.887Z,28.7
2019-01-16T05:35:36.981Z,28.7
2019-01-16T05:36:26.496Z,28.7
2019-01-16T05:37:16.829Z,28.7
2019-01-16T05:38:07.184Z,28.7
2019-01-16T05:38:56.931Z,28.7
2019-01-16T05:39:46.968Z,28.7
2019-01-16T05:40:37.328Z,28.7
2019-01-16T05:41:27.097Z,28.7
2019-01-16T05:42:17.413Z,28.7
2019-01-16T05:43:07.204Z,28.6
2019-01-16T05:43:57.535Z,28.6
2019-01-16T05:44:47.581Z,28.7
2019-01-16T05:45:37.083Z,28.6
2019-01-16T05:46:27.663Z,28.6
2019-01-16T05:47:17.454Z,28.6
2019-01-16T05:48:07.588Z,28.6
2019-01-16T05:48:57.556Z,28.6
2019-01-16T05:49:52.728Z,28.6
2019-01-16T05:50:37.425Z,28.6
2019-01-16T05:51:28.027Z,28.6
2019-01-16T05:52:17.782Z,28.6
2019-01-16T05:53:07.878Z,28.6
2019-01-16T05:53:58.189Z,28.6
2019-01-16T05:54:48.008Z,28.6
2019-01-16T05:55:37.773Z,28.6
2019-01-16T05:56:27.794Z,28.6
2019-01-16T05:57:18.403Z,28.6
2019-01-16T05:58:08.512Z,28.6
2019-01-16T05:58:57.960Z,28.5
2019-01-16T05:59:48.306Z,28.6
2019-01-16T06:00:38.737Z,28.5
2019-01-16T06:01:28.712Z,28.5
2019-01-16T06:02:18.825Z,28.5
2019-01-16T06:03:08.778Z,28.5
2019-01-16T06:03:58.864Z,28.5
2019-01-16T06:04:48.332Z,28.5
2019-01-16T06:06:46.704Z,28.4
2019-01-16T06:07:36.506Z,28.5
2019-01-16T06:08:27.112Z,28.4
2019-01-16T06:09:18.630Z,28.4
2019-01-16T06:10:07.244Z,28.4
2019-01-16T06:10:57.301Z,28.4
2019-01-16T06:11:47.291Z,28.4
2019-01-16T06:12:37.092Z,28.4
2019-01-16T06:13:27.182Z,28.4
2019-01-16T06:14:17.528Z,28.4
2019-01-16T06:15:07.265Z,28.4
2019-01-16T06:15:57.622Z,28.4
2019-01-16T06:16:47.379Z,28.4
2019-01-16T06:17:37.394Z,28.4
2019-01-16T06:18:27.864Z,28.4
2019-01-16T06:19:16.733Z,28.4
2019-01-16T06:20:07.867Z,28.4
2019-01-16T06:20:57.642Z,28.4
2019-01-16T06:21:47.959Z,28.4
2019-01-16T06:22:37.735Z,28.4
2019-01-16T06:23:28.210Z,28.4
2019-01-16T06:24:17.897Z,28.4
2019-01-16T06:25:08.008Z,28.3
2019-01-16T06:25:58.014Z,28.3
2019-01-16T06:26:48.019Z,28.4
2019-01-16T06:27:38.437Z,28.3
2019-01-16T06:28:28.479Z,28.3
2019-01-16T06:29:18.199Z,28.3
2019-01-16T06:30:08.528Z,28.3
2019-01-16T06:30:57.797Z,28.3
2019-01-16T06:31:47.889Z,28.3
2019-01-16T06:32:37.936Z,28.3
2019-01-16T06:33:28.346Z,28.3
2019-01-16T06:34:18.911Z,28.3
2019-01-16T06:35:08.884Z,28.3
2019-01-16T06:35:58.678Z,28.3
2019-01-16T06:36:47.989Z,28.3
2019-01-16T06:37:39.021Z,28.3
2019-01-16T06:38:29.071Z,28.3
2019-01-16T06:39:19.125Z,28.3
2019-01-16T06:40:08.921Z,28.3
2019-01-16T06:40:58.958Z,28.2
2019-01-16T06:41:48.520Z,28.2
2019-01-16T06:42:39.085Z,28.2
2019-01-16T06:43:29.123Z,28.2
2019-01-16T06:44:19.213Z,28.2
2019-01-16T06:45:08.428Z,28.2
2019-01-16T06:45:59.010Z,28.2
2019-01-16T06:46:49.690Z,28.1
2019-01-16T06:47:39.400Z,28.1
2019-01-16T06:48:28.905Z,28.2
2019-01-16T06:49:19.240Z,28.1
2019-01-16T06:50:17.433Z,28.1
2019-01-16T06:50:59.627Z,28.1
2019-01-16T06:51:49.960Z,28.1
2019-01-16T06:52:40.015Z,28.1
2019-01-16T06:53:29.812Z,28.1
2019-01-16T06:54:20.155Z,28.1
2019-01-16T06:55:09.985Z,28.1
2019-01-16T06:55:59.975Z,28.1
2019-01-16T06:56:50.300Z,28.1
2019-01-16T06:57:40.151Z,28.1
2019-01-16T06:58:30.137Z,28.1
2019-01-16T06:59:19.172Z,28.1
2019-01-16T07:00:10.540Z,28.1
2019-01-16T07:01:00.091Z,28.1
2019-01-16T07:01:50.133Z,28.1
2019-01-16T07:02:40.680Z,28.1
2019-01-16T07:03:30.269Z,28.1
2019-01-16T07:04:20.239Z,28.1
2019-01-16T07:06:46.591Z,28
2019-01-16T07:07:36.676Z,28
2019-01-16T07:08:25.974Z,28
2019-01-16T07:09:17.064Z,28
2019-01-16T07:10:06.639Z,28
2019-01-16T07:10:57.254Z,27.9
2019-01-16T07:11:46.734Z,28
2019-01-16T07:12:36.744Z,28
2019-01-16T07:13:27.338Z,28
2019-01-16T07:14:17.436Z,27.9
2019-01-16T07:15:07.151Z,27.9
2019-01-16T07:15:57.233Z,27.9
2019-01-16T07:16:47.288Z,27.9
2019-01-16T07:17:37.626Z,27.9
2019-01-16T07:18:27.409Z,27.9
2019-01-16T07:19:17.750Z,27.9
2019-01-16T07:20:15.220Z,27.9
2019-01-16T07:20:57.570Z,27.9
2019-01-16T07:21:47.908Z,27.9
2019-01-16T07:22:37.680Z,27.9
2019-01-16T07:23:27.743Z,27.9
2019-01-16T07:24:17.795Z,27.9
2019-01-16T07:25:08.128Z,27.9
2019-01-16T07:25:58.197Z,27.9
2019-01-16T07:26:47.968Z,27.9
2019-01-16T07:27:38.325Z,27.9
2019-01-16T07:37:38.479Z,27.8
2019-01-16T07:39:19.090Z,27.8
2019-01-16T07:40:08.859Z,27.8
2019-01-16T07:40:58.977Z,27.8
2019-01-16T07:41:48.985Z,27.8
2019-01-16T07:42:46.611Z,27.8
2019-01-16T07:43:29.160Z,27.8
2019-01-16T07:44:18.912Z,27.8
2019-01-16T07:45:08.984Z,27.8
2019-01-16T07:45:59.517Z,27.8
2019-01-16T07:46:50.667Z,27.7
2019-01-16T07:47:39.649Z,27.8
2019-01-16T07:48:29.907Z,27.7
2019-01-16T07:49:19.742Z,27.8
2019-01-16T07:50:16.926Z,27.7
2019-01-16T07:50:59.869Z,27.7
2019-01-16T07:51:49.696Z,33.1
2019-01-16T07:52:39.501Z,36.3
2019-01-16T07:53:30.041Z,36.2
2019-01-16T07:54:19.551Z,40
2019-01-16T07:55:10.159Z,42.7
2019-01-16T07:55:59.663Z,43.8
2019-01-16T07:56:50.034Z,43.9
2019-01-16T07:57:40.046Z,43.8
2019-01-16T07:58:30.110Z,43.6
2019-01-16T07:59:27.268Z,43.2
2019-01-16T08:00:10.233Z,42.8
2019-01-16T08:01:00.569Z,42.4
2019-01-16T08:01:50.606Z,42
2019-01-16T08:02:40.401Z,41.6
2019-01-16T08:03:30.445Z,41.3
2019-01-16T08:04:20.285Z,40.9
2019-01-16T08:05:10.830Z,40.5
2019-01-16T08:06:00.893Z,40.2
2019-01-16T08:06:50.676Z,39.8
2019-01-16T08:07:41.003Z,39.5
2019-01-16T08:08:30.773Z,39.2
2019-01-16T08:09:20.855Z,38.9
2019-01-16T08:10:10.342Z,38.6
2019-01-16T08:11:00.683Z,38.4
2019-01-16T08:11:50.740Z,40.1
2019-01-16T08:12:41.350Z,41.1
2019-01-16T08:13:31.413Z,41.1
2019-01-16T08:14:21.454Z,43.7
2019-01-16T08:15:11.510Z,45.4
2019-01-16T08:16:01.277Z,45.9
2019-01-16T08:16:50.805Z,45.4
2019-01-16T08:17:41.750Z,44.9
2019-01-16T08:18:31.763Z,44.5
2019-01-16T08:19:21.809Z,44.5
2019-01-16T08:20:11.613Z,44.8
2019-01-16T08:21:01.930Z,45.2
2019-01-16T08:21:51.407Z,45.6
2019-01-16T08:22:42.037Z,45.9
2019-01-16T08:23:32.067Z,46
2019-01-16T08:24:22.147Z,46.1
2019-01-16T08:25:12.240Z,46.1
2019-01-16T08:26:01.969Z,46.2
2019-01-16T08:26:51.821Z,46.3
2019-01-16T08:27:42.087Z,46.4
2019-01-16T08:28:32.155Z,46.6
2019-01-16T08:29:21.923Z,46.7
2019-01-16T08:30:12.261Z,46.8
2019-01-16T08:31:02.036Z,46.9
2019-01-16T08:31:52.380Z,46.9
2019-01-16T08:32:42.214Z,47.1
2019-01-16T08:33:31.911Z,47.1
2019-01-16T08:34:22.524Z,47.2
2019-01-16T08:35:12.862Z,47.3
2019-01-16T08:36:02.366Z,47.4
2019-01-16T08:36:52.746Z,47.4
2019-01-16T08:37:42.761Z,47.5
2019-01-16T08:38:32.906Z,47.6
2019-01-16T08:39:22.586Z,47.7
2019-01-16T08:40:13.268Z,47.8
2019-01-16T08:41:03.253Z,47.8
2019-01-16T08:41:52.773Z,47.9
2019-01-16T08:42:43.368Z,47.9
2019-01-16T08:43:33.429Z,48
2019-01-16T08:44:23.504Z,48.1
2019-01-16T08:45:13.287Z,48.3
2019-01-16T08:46:03.326Z,48.3
2019-01-16T08:46:53.650Z,48.3
2019-01-16T08:47:43.753Z,48.4
2019-01-16T08:48:33.213Z,48.4
2019-01-16T08:49:23.608Z,48.6
2019-01-16T08:50:13.617Z,48.6
2019-01-16T08:51:03.953Z,48.7
2019-01-16T08:51:53.491Z,48.8
2019-01-16T08:52:44.037Z,48.8
2019-01-16T08:53:35.916Z,48.9
2019-01-16T08:54:23.913Z,48.9
2019-01-16T08:55:14.220Z,49
2019-01-16T08:56:04.275Z,49.1
2019-01-16T08:56:54.332Z,49.2
2019-01-16T08:57:44.397Z,49.3
2019-01-16T08:58:34.512Z,49.3
2019-01-16T08:59:24.242Z,49.4
2019-01-16T09:00:14.573Z,49.6
2019-01-16T09:01:03.766Z,49.6
2019-01-16T09:01:54.399Z,49.7
2019-01-16T09:02:44.462Z,49.8
2019-01-16T09:03:34.784Z,49.8
2019-01-16T09:04:24.834Z,49.9
2019-01-16T09:05:14.367Z,50
2019-01-16T09:06:04.177Z,50.1
2019-01-16T09:06:55.069Z,50.1
2019-01-16T09:07:45.059Z,50.2
2019-01-16T09:08:34.279Z,50.3
2019-01-16T09:09:24.432Z,50.4
2019-01-16T09:10:14.471Z,50.4
2019-01-16T09:11:05.289Z,50.3
2019-01-16T09:11:55.085Z,49.9
2019-01-16T09:12:44.363Z,49.7
2019-01-16T09:13:35.465Z,49.4
2019-01-16T09:14:25.016Z,49.3
2019-01-16T09:15:15.334Z,49.1
2019-01-16T09:16:04.819Z,49.1
2019-01-16T09:16:55.451Z,49.1
2019-01-16T09:17:47.274Z,49.1
2019-01-16T09:18:35.548Z,49.1
2019-01-16T09:19:25.648Z,48.9
2019-01-16T09:20:15.913Z,48.8
2019-01-16T09:21:05.975Z,48.6
2019-01-16T09:21:56.016Z,48.4
2019-01-16T09:22:47.935Z,48.3
2019-01-16T09:23:36.126Z,48.1
2019-01-16T09:24:25.363Z,47.9
2019-01-16T09:25:15.973Z,47.8
2019-01-16T09:26:06.300Z,47.6
2019-01-16T09:26:56.063Z,47.5
2019-01-16T09:27:46.126Z,47.4
2019-01-16T09:28:36.458Z,47.5
2019-01-16T09:29:26.528Z,47.6
2019-01-16T09:30:16.073Z,47.4
2019-01-16T09:31:06.088Z,47.3
2019-01-16T09:31:56.421Z,47.3
2019-01-16T09:32:46.546Z,47.4
2019-01-16T09:33:36.022Z,47.8
2019-01-16T09:34:26.905Z,48.3
2019-01-16T09:35:16.438Z,48.7
2019-01-16T09:36:06.702Z,49.1
2019-01-16T09:36:56.838Z,49.3
2019-01-16T09:37:46.817Z,49.5
2019-01-16T09:38:36.865Z,49.7
2019-01-16T09:39:26.931Z,49.8
2019-01-16T09:40:17.256Z,50
2019-01-16T09:41:06.332Z,50.2
2019-01-16T09:41:57.362Z,50.3
2019-01-16T09:42:46.459Z,50.4
2019-01-16T09:43:37.499Z,50.5
2019-01-16T09:44:27.051Z,50.6
2019-01-16T09:45:17.683Z,50.8
2019-01-16T09:46:06.887Z,50.8
2019-01-16T09:46:57.423Z,50.9
2019-01-16T09:47:47.804Z,50.9
2019-01-16T09:48:36.986Z,50.9
2019-01-16T09:49:27.329Z,51
2019-01-16T09:50:17.653Z,51
2019-01-16T09:51:07.787Z,51
2019-01-16T09:51:58.119Z,51.1
2019-01-16T09:52:47.840Z,51.1
2019-01-16T09:53:38.169Z,51.3
2019-01-16T09:54:27.734Z,51.4
2019-01-16T09:55:17.994Z,51.5
2019-01-16T09:56:08.381Z,51.6
2019-01-16T09:56:58.109Z,51.6
2019-01-16T09:57:48.497Z,51.6
2019-01-16T09:58:38.217Z,51.5
2019-01-16T09:59:28.281Z,51.4
2019-01-16T10:00:18.117Z,51.2
2019-01-16T10:01:08.098Z,51.1
2019-01-16T10:01:58.166Z,51
2019-01-16T10:02:48.501Z,51
2019-01-16T10:03:38.568Z,51.1
2019-01-16T10:04:28.679Z,51.1
2019-01-16T10:05:18.941Z,51.1
2019-01-16T10:07:45.886Z,51
2019-01-16T10:08:36.260Z,51
2019-01-16T10:09:26.253Z,51
2019-01-16T10:10:16.330Z,51.1
2019-01-16T10:11:06.375Z,51.3
2019-01-16T10:11:56.716Z,51.4
2019-01-16T10:12:46.770Z,51.5
2019-01-16T10:13:36.545Z,51.6
2019-01-16T10:14:27.227Z,51.6
2019-01-16T10:15:17.000Z,51.7
2019-01-16T10:16:07.279Z,51.8
2019-01-16T10:16:57.322Z,51.9
2019-01-16T10:17:46.843Z,52
2019-01-16T10:18:36.943Z,52.1
2019-01-16T10:19:27.202Z,52.1
2019-01-16T10:20:16.999Z,52.1
2019-01-16T10:21:07.613Z,52
2019-01-16T10:21:56.827Z,52.1
2019-01-16T10:22:47.221Z,52.1
2019-01-16T10:23:37.487Z,52.1
2019-01-16T10:24:27.295Z,52.2
2019-01-16T10:25:17.887Z,52.3
2019-01-16T10:26:07.954Z,52.3
2019-01-16T10:26:58.004Z,52.3
2019-01-16T10:27:47.287Z,52.3
2019-01-16T10:30:16.846Z,52.3
2019-01-16T10:31:07.713Z,52.3
2019-01-16T10:33:38.185Z,52.4
2019-01-16T10:34:28.234Z,52.4
2019-01-16T10:36:07.848Z,52.3
2019-01-16T10:36:58.692Z,52.3
2019-01-16T10:37:48.196Z,52.3
2019-01-16T10:38:38.231Z,52.3
2019-01-16T10:39:28.629Z,52.3
2019-01-16T10:40:18.964Z,52.3
2019-01-16T10:41:08.691Z,52.3
2019-01-16T10:41:58.191Z,52.3
2019-01-16T10:42:48.513Z,52.3
2019-01-16T10:43:38.354Z,52.1
2019-01-16T10:44:28.403Z,52.1
2019-01-16T10:45:20.542Z,52
2019-01-16T10:46:58.807Z,51.9
2019-01-16T10:48:38.656Z,51.9
2019-01-16T10:49:29.245Z,51.9
2019-01-16T10:52:49.487Z,52
2019-01-16T10:53:39.263Z,52.1
2019-01-16T10:54:29.112Z,52.1
2019-01-16T10:55:19.385Z,52.2
2019-01-16T10:56:09.165Z,52.3
2019-01-16T10:57:49.535Z,52.4
2019-01-16T10:58:39.872Z,52.5
2019-01-16T10:59:29.655Z,52.4
2019-01-16T11:00:19.980Z,52.4
2019-01-16T11:01:09.022Z,52.4
2019-01-16T11:02:00.385Z,52.5
2019-01-16T11:02:49.867Z,52.6
2019-01-16T11:03:40.252Z,52.6
2019-01-16T11:04:29.437Z,52.7
2019-01-16T11:05:20.057Z,52.8
2019-01-16T11:06:09.542Z,52.9
2019-01-16T11:06:59.884Z,52.9
2019-01-16T11:07:50.499Z,53
2019-01-16T11:08:40.848Z,53.1
2019-01-16T11:09:30.350Z,53.2
2019-01-16T11:10:20.405Z,53.3
2019-01-16T11:11:19.584Z,53.2
2019-01-16T11:12:00.496Z,53.1
2019-01-16T11:12:50.836Z,53.1
2019-01-16T11:13:41.089Z,53.1
2019-01-16T11:14:30.954Z,53.1
2019-01-16T11:15:20.724Z,53.1
2019-01-16T11:16:11.374Z,53.1
2019-01-16T11:17:02.071Z,53.1
2019-01-16T11:17:51.164Z,53.1
2019-01-16T11:18:41.256Z,53.1
2019-01-16T11:19:30.736Z,53.2
2019-01-16T11:20:20.814Z,53.3
2019-01-16T11:21:16.834Z,53.4
2019-01-16T11:22:01.168Z,53.6
2019-01-16T11:22:51.234Z,53.6
2019-01-16T11:23:41.293Z,53.8
2019-01-16T11:24:31.358Z,53.7
2019-01-16T11:25:22.008Z,53.7
2019-01-16T11:26:11.464Z,53.8
2019-01-16T11:27:01.515Z,53.8
2019-01-16T11:27:51.296Z,53.8
2019-01-16T11:28:41.646Z,53.9
2019-01-16T11:29:32.035Z,53.9
2019-01-16T11:30:22.038Z,54
2019-01-16T11:31:12.128Z,54.1
2019-01-16T11:32:02.207Z,54.1
2019-01-16T11:32:52.542Z,54.2
2019-01-16T11:33:41.970Z,54.2
2019-01-16T11:34:31.748Z,54.2
2019-01-16T11:35:23.940Z,54.2
2019-01-16T11:36:12.227Z,54.1